createdAt,value
2018-06-14T00:01:04.201Z,6.07
2018-06-14T00:03:42.514Z,7.03
2018-06-14T00:06:19.974Z,9.97
2018-06-14T00:08:56.797Z,9.95
2018-06-14T00:11:33.678Z,7.27
2018-06-14T00:14:09.859Z,7.03
2018-06-14T00:16:48.848Z,6.93
2018-06-14T00:19:25.649Z,6.43
2018-06-14T00:22:01.732Z,5.47
2018-06-14T00:24:38.036Z,12.00
2018-06-14T00:27:16.220Z,7.90
2018-06-14T00:29:53.024Z,6.93
2018-06-14T00:32:29.823Z,6.50
2018-06-14T00:35:06.820Z,5.40
2018-06-14T00:37:42.913Z,7.13
2018-06-14T00:40:21.378Z,6.67
2018-06-14T00:43:01.809Z,6.67
2018-06-14T00:45:39.300Z,6.77
2018-06-14T00:48:15.986Z,10.93
2018-06-14T00:50:53.595Z,5.00
2018-06-14T00:53:31.457Z,7.03
2018-06-14T00:56:07.928Z,6.10
2018-06-14T00:58:45.096Z,7.13
2018-06-14T01:01:21.903Z,7.30
2018-06-14T01:03:57.543Z,6.47
2018-06-14T01:06:33.630Z,7.03
2018-06-14T01:09:10.597Z,6.40
2018-06-14T01:11:48.359Z,7.00
2018-06-14T01:14:25.367Z,6.97
2018-06-14T01:17:02.508Z,8.00
2018-06-14T01:19:39.172Z,6.67
2018-06-14T01:22:16.828Z,9.53
2018-06-14T01:24:54.292Z,9.13
2018-06-14T01:27:30.478Z,5.73
2018-06-14T01:30:07.613Z,6.13
2018-06-14T01:32:44.327Z,5.23
2018-06-14T01:35:23.104Z,6.20
2018-06-14T01:38:15.904Z,7.93
2018-06-14T01:40:53.319Z,6.57
2018-06-14T01:43:29.988Z,9.67
2018-06-14T01:46:06.117Z,7.90
2018-06-14T01:48:42.147Z,6.80
2018-06-14T01:51:18.494Z,8.43
2018-06-14T01:53:55.815Z,6.80
2018-06-14T01:56:32.088Z,8.50
2018-06-14T01:59:08.535Z,5.07
2018-06-14T02:01:44.589Z,6.03
2018-06-14T02:04:21.197Z,8.60
2018-06-14T02:06:57.952Z,7.23
2018-06-14T02:09:34.609Z,6.07
2018-06-14T02:12:11.908Z,9.43
2018-06-14T02:14:50.321Z,8.70
2018-06-14T02:17:27.377Z,7.70
2018-06-14T02:20:04.192Z,5.23
2018-06-14T02:22:40.361Z,5.10
2018-06-14T02:25:17.483Z,5.90
2018-06-14T02:27:54.922Z,6.27
2018-06-14T02:30:31.914Z,7.90
2018-06-14T02:33:09.566Z,3.97
2018-06-14T02:35:47.273Z,3.63
2018-06-14T02:38:26.546Z,5.07
2018-06-14T02:41:02.352Z,4.60
2018-06-14T02:43:39.492Z,4.03
2018-06-14T02:46:16.477Z,6.80
2018-06-14T02:48:52.710Z,5.53
2018-06-14T02:51:30.972Z,4.07
2018-06-14T02:54:07.705Z,7.97
2018-06-14T02:56:44.546Z,4.87
2018-06-14T02:59:21.945Z,6.87
2018-06-14T03:01:57.811Z,5.97
2018-06-14T03:04:33.844Z,3.93
2018-06-14T03:07:10.317Z,7.43
2018-06-14T03:09:47.324Z,7.07
2018-06-14T03:12:23.970Z,7.00
2018-06-14T03:15:01.979Z,7.83
2018-06-14T03:17:40.090Z,5.57
2018-06-14T03:20:21.228Z,4.23
2018-06-14T03:22:58.286Z,5.30
2018-06-14T03:25:34.895Z,6.97
2018-06-14T03:28:11.506Z,7.00
2018-06-14T03:30:49.264Z,5.30
2018-06-14T03:33:25.318Z,9.60
2018-06-14T03:36:01.585Z,5.87
2018-06-14T03:38:37.759Z,5.20
2018-06-14T03:41:14.016Z,9.83
2018-06-14T03:43:51.384Z,6.97
2018-06-14T03:46:28.792Z,7.57
2018-06-14T03:49:05.425Z,6.83
2018-06-14T03:51:42.953Z,7.37
2018-06-14T03:54:21.141Z,3.90
2018-06-14T03:56:57.572Z,7.30
2018-06-14T03:59:34.764Z,6.77
2018-06-14T04:02:10.568Z,7.63
2018-06-14T04:04:46.669Z,6.87
2018-06-14T04:07:24.165Z,5.00
2018-06-14T04:10:00.534Z,7.03
2018-06-14T04:12:36.959Z,5.67
2018-06-14T04:15:13.305Z,6.00
2018-06-14T04:17:54.222Z,7.60
2018-06-14T04:20:32.477Z,6.27
2018-06-14T04:23:09.168Z,7.57
2018-06-14T04:25:46.289Z,5.77
2018-06-14T04:28:22.067Z,10.20
2018-06-14T04:30:57.760Z,6.83
2018-06-14T04:33:34.980Z,5.93
2018-06-14T04:36:10.885Z,5.50
2018-06-14T04:38:47.689Z,7.07
2018-06-14T04:41:24.665Z,4.90
2018-06-14T04:44:00.979Z,5.57
2018-06-14T04:46:37.380Z,6.30
2018-06-14T04:49:13.397Z,5.37
2018-06-14T04:51:49.281Z,4.90
2018-06-14T04:54:25.293Z,8.23
2018-06-14T04:57:01.225Z,4.90
2018-06-14T04:59:37.029Z,7.73
2018-06-14T05:02:14.141Z,9.40
2018-06-14T05:04:50.979Z,7.53
2018-06-14T05:07:26.825Z,6.40
2018-06-14T05:10:04.008Z,8.20
2018-06-14T05:12:40.482Z,8.57
2018-06-14T05:15:17.069Z,10.43
2018-06-14T05:17:53.154Z,9.10
2018-06-14T05:20:30.822Z,7.63
2018-06-14T05:23:06.825Z,7.57
2018-06-14T05:25:43.072Z,5.87
2018-06-14T05:28:20.606Z,6.77
2018-06-14T05:30:57.594Z,7.73
2018-06-14T05:33:34.185Z,5.27
2018-06-14T05:36:11.089Z,5.83
2018-06-14T05:38:47.349Z,6.70
2018-06-14T05:41:24.744Z,8.03
2018-06-14T05:44:01.900Z,6.03
2018-06-14T05:46:38.496Z,8.90
2018-06-14T05:49:15.557Z,8.37
2018-06-14T05:51:53.944Z,7.87
2018-06-14T05:54:30.601Z,6.83
2018-06-14T05:57:06.932Z,7.97
2018-06-14T05:59:43.759Z,8.80
2018-06-14T06:02:21.809Z,10.40
2018-06-14T06:04:58.208Z,5.70
2018-06-14T06:07:35.976Z,7.60
2018-06-14T06:10:13.652Z,9.80
2018-06-14T06:12:50.242Z,9.37
2018-06-14T06:15:28.197Z,7.13
2018-06-14T06:18:04.284Z,8.67
2018-06-14T06:20:40.894Z,11.27
2018-06-14T06:23:18.265Z,7.50
2018-06-14T06:25:54.617Z,7.97
2018-06-14T06:28:30.992Z,9.47
2018-06-14T06:31:07.211Z,8.33
2018-06-14T06:33:43.903Z,9.63
2018-06-14T06:36:20.105Z,5.40
2018-06-14T06:38:57.288Z,9.57
2018-06-14T06:41:33.699Z,10.23
2018-06-14T06:44:11.785Z,9.60
2018-06-14T06:46:48.540Z,10.60
2018-06-14T06:49:25.347Z,15.97
2018-06-14T06:52:01.721Z,12.97
2018-06-14T06:54:38.826Z,8.37
2018-06-14T06:57:16.291Z,8.70
2018-06-14T06:59:53.536Z,5.83
2018-06-14T07:02:31.228Z,16.93
2018-06-14T07:05:07.788Z,9.33
2018-06-14T07:07:43.787Z,7.00
2018-06-14T07:10:20.029Z,8.87
2018-06-14T07:12:58.331Z,11.53
2018-06-14T07:15:37.868Z,7.63
2018-06-14T07:18:14.220Z,7.90
2018-06-14T07:20:51.571Z,10.13
2018-06-14T07:23:27.863Z,6.83
2018-06-14T07:26:04.888Z,13.80
2018-06-14T07:28:41.212Z,11.37
2018-06-14T07:31:17.234Z,6.97
2018-06-14T07:33:53.393Z,10.43
2018-06-14T07:36:30.904Z,8.67
2018-06-14T07:39:10.907Z,9.47
2018-06-14T07:41:47.838Z,11.37
2018-06-14T07:44:24.276Z,9.03
2018-06-14T07:47:01.466Z,8.60
2018-06-14T07:49:38.767Z,10.43
2018-06-14T07:52:16.449Z,8.30
2018-06-14T07:54:52.622Z,13.20
2018-06-14T07:57:29.644Z,9.40
2018-06-14T08:00:07.754Z,8.13
2018-06-14T08:02:45.272Z,12.73
2018-06-14T08:05:22.744Z,8.17
2018-06-14T08:07:58.304Z,6.33
2018-06-14T08:10:35.000Z,10.10
2018-06-14T08:13:12.134Z,7.77
2018-06-14T08:15:50.556Z,5.90
2018-06-14T08:18:27.183Z,11.53
2018-06-14T08:21:03.969Z,10.93
2018-06-14T08:23:41.684Z,9.90
2018-06-14T08:26:17.492Z,9.40
2018-06-14T08:28:55.169Z,10.07
2018-06-14T08:31:32.457Z,8.93
2018-06-14T08:34:10.861Z,6.37
2018-06-14T08:36:47.906Z,8.70
2018-06-14T08:39:25.900Z,8.33
2018-06-14T08:42:03.755Z,7.17
2018-06-14T08:44:41.363Z,6.10
2018-06-14T08:47:18.446Z,7.80
2018-06-14T08:49:55.772Z,7.43
2018-06-14T08:52:33.613Z,9.97
2018-06-14T08:55:11.307Z,6.00
2018-06-14T08:57:47.888Z,9.27
2018-06-14T09:00:25.280Z,6.70
2018-06-14T09:03:02.416Z,8.47
2018-06-14T09:05:39.925Z,7.73
2018-06-14T09:08:18.413Z,5.80
2018-06-14T09:10:55.036Z,6.80
2018-06-14T09:13:31.681Z,10.10
2018-06-14T09:16:10.073Z,8.97
2018-06-14T09:18:47.212Z,8.40
2018-06-14T09:21:23.705Z,7.70
2018-06-14T09:23:59.593Z,7.30
2018-06-14T09:26:37.402Z,6.93
2018-06-14T09:29:15.111Z,6.40
2018-06-14T09:31:52.340Z,5.63
2018-06-14T09:34:28.467Z,6.97
2018-06-14T09:37:05.353Z,5.00
2018-06-14T09:39:42.259Z,7.27
2018-06-14T09:42:20.454Z,7.70
2018-06-14T09:44:57.347Z,7.37
2018-06-14T09:47:34.372Z,5.93
2018-06-14T09:50:11.390Z,8.00
2018-06-14T09:52:47.962Z,6.53
2018-06-14T09:55:25.037Z,10.17
2018-06-14T09:58:03.420Z,7.50
2018-06-14T10:00:40.112Z,9.90
2018-06-14T10:03:16.867Z,12.43
2018-06-14T10:05:54.332Z,8.03
2018-06-14T10:08:31.926Z,6.67
2018-06-14T10:11:09.869Z,9.67
2018-06-14T10:13:46.540Z,7.63
2018-06-14T10:16:24.728Z,6.70
2018-06-14T10:19:02.183Z,8.13
2018-06-14T10:21:39.133Z,8.53
2018-06-14T10:24:16.593Z,6.27
2018-06-14T10:26:53.426Z,8.87
2018-06-14T10:29:29.697Z,7.70
2018-06-14T10:32:06.398Z,15.47
2018-06-14T10:34:42.724Z,13.07
2018-06-14T10:37:21.170Z,10.53
2018-06-14T10:39:59.504Z,9.93
2018-06-14T10:42:36.053Z,11.17
2018-06-14T10:45:13.282Z,9.50
2018-06-14T10:47:49.875Z,9.60
2018-06-14T10:50:27.653Z,9.30
2018-06-14T10:53:04.958Z,12.60
2018-06-14T10:55:42.083Z,9.07
2018-06-14T10:58:17.836Z,13.30
2018-06-14T11:00:55.164Z,10.87
2018-06-14T11:03:32.045Z,10.27
2018-06-14T11:06:09.445Z,9.13
2018-06-14T11:08:47.338Z,12.73
2018-06-14T11:11:24.816Z,10.30
2018-06-14T11:14:02.482Z,10.43
2018-06-14T11:16:40.577Z,12.80
2018-06-14T11:19:16.929Z,14.93
2018-06-14T11:21:53.417Z,15.27
2018-06-14T11:24:31.234Z,12.00
2018-06-14T11:27:08.641Z,12.97
2018-06-14T11:29:46.369Z,11.80
2018-06-14T11:32:24.966Z,12.03
2018-06-14T11:35:01.910Z,16.17
2018-06-14T11:37:39.232Z,13.57
2018-06-14T11:40:15.515Z,13.07
2018-06-14T11:42:53.381Z,12.30
2018-06-14T11:45:30.413Z,10.57
2018-06-14T11:48:09.301Z,12.93
2018-06-14T11:50:46.486Z,13.33
2018-06-14T11:53:23.572Z,11.70
2018-06-14T11:56:01.695Z,10.90
2018-06-14T11:58:38.068Z,9.83
2018-06-14T12:01:15.437Z,12.67
2018-06-14T12:03:53.400Z,13.57
2018-06-14T12:06:29.673Z,11.30
2018-06-14T12:09:08.385Z,11.07
2018-06-14T12:11:45.151Z,11.13
2018-06-14T12:14:22.569Z,16.33
2018-06-14T12:17:01.587Z,16.57
2018-06-14T12:19:38.475Z,12.20
2018-06-14T12:22:15.262Z,11.00
2018-06-14T12:24:52.426Z,13.30
2018-06-14T12:27:29.139Z,12.00
2018-06-14T12:30:07.741Z,11.90
2018-06-14T12:32:44.464Z,10.93
2018-06-14T12:35:21.696Z,10.93
2018-06-14T12:38:00.236Z,11.80
2018-06-14T12:40:37.914Z,11.97
2018-06-14T12:43:15.117Z,13.80
2018-06-14T12:45:52.752Z,12.40
2018-06-14T12:48:29.892Z,11.57
2018-06-14T12:51:06.140Z,10.60
2018-06-14T12:53:43.309Z,11.03
2018-06-14T12:56:20.939Z,17.40
2018-06-14T12:58:58.256Z,11.27
2018-06-14T13:01:35.160Z,10.13
2018-06-14T13:04:12.502Z,11.80
2018-06-14T13:06:49.979Z,11.63
2018-06-14T13:09:26.208Z,9.93
2018-06-14T13:12:03.121Z,11.43
2018-06-14T13:14:39.984Z,12.37
2018-06-14T13:17:17.570Z,9.83
2018-06-14T13:19:54.936Z,11.87
2018-06-14T13:22:30.920Z,9.90
2018-06-14T13:25:08.098Z,10.43
2018-06-14T13:27:44.904Z,9.50
2018-06-14T13:30:22.053Z,10.77
2018-06-14T13:32:59.139Z,10.70
2018-06-14T13:35:36.950Z,14.17
2018-06-14T13:38:13.439Z,10.97
2018-06-14T13:40:49.812Z,10.23
2018-06-14T13:43:27.046Z,11.27
2018-06-14T13:46:03.837Z,9.73
2018-06-14T13:48:41.248Z,8.10
2018-06-14T13:51:19.164Z,11.80
2018-06-14T13:53:56.161Z,11.40
2018-06-14T13:56:34.479Z,11.00
2018-06-14T13:59:11.950Z,9.40
2018-06-14T14:01:49.523Z,9.77
2018-06-14T14:04:26.082Z,11.27
2018-06-14T14:07:04.966Z,9.13
2018-06-14T14:09:40.704Z,10.47
2018-06-14T14:12:18.042Z,8.73
2018-06-14T14:14:55.737Z,9.00
2018-06-14T14:17:33.737Z,8.27
2018-06-14T14:20:09.732Z,9.30
2018-06-14T14:22:46.268Z,8.67
2018-06-14T14:25:23.855Z,8.40
2018-06-14T14:28:00.529Z,11.43
2018-06-14T14:30:37.104Z,10.20
2018-06-14T14:33:14.207Z,9.50
2018-06-14T14:35:52.251Z,9.73
2018-06-14T14:38:29.120Z,8.70
2018-06-14T14:41:04.969Z,11.63
2018-06-14T14:43:41.589Z,9.60
2018-06-14T14:46:18.224Z,10.73
2018-06-14T14:48:53.985Z,11.00
2018-06-14T14:51:31.013Z,9.50
2018-06-14T14:54:07.588Z,11.33
2018-06-14T14:56:44.568Z,8.13
2018-06-14T14:59:22.221Z,8.33
2018-06-14T15:01:59.185Z,10.83
2018-06-14T15:04:37.292Z,8.03
2018-06-14T15:07:13.801Z,8.37
2018-06-14T15:09:50.446Z,8.60
2018-06-14T15:12:27.634Z,7.50
2018-06-14T15:15:05.955Z,11.20
2018-06-14T15:17:43.615Z,9.47
2018-06-14T15:20:21.517Z,8.40
2018-06-14T15:22:57.817Z,8.50
2018-06-14T15:25:34.865Z,9.23
2018-06-14T15:28:11.498Z,8.40
2018-06-14T15:30:50.145Z,8.63
2018-06-14T15:33:27.579Z,8.80
2018-06-14T15:36:06.329Z,8.23
2018-06-14T15:38:42.967Z,8.50
2018-06-14T15:41:20.556Z,7.60
2018-06-14T15:43:57.571Z,9.73
2018-06-14T15:46:35.557Z,8.40
2018-06-14T15:49:12.011Z,8.20
2018-06-14T15:51:48.603Z,8.30
2018-06-14T15:54:25.560Z,8.33
2018-06-14T15:57:03.253Z,10.97
2018-06-14T15:59:40.872Z,9.27
2018-06-14T16:02:17.966Z,9.23
2018-06-14T16:04:55.162Z,9.73
2018-06-14T16:07:32.261Z,9.00
2018-06-14T16:10:09.072Z,8.37
2018-06-14T16:12:45.360Z,7.80
2018-06-14T16:15:23.105Z,7.60
2018-06-14T16:18:00.476Z,7.93
2018-06-14T16:20:37.602Z,7.83
2018-06-14T16:23:14.265Z,10.03
2018-06-14T16:25:51.001Z,8.17
2018-06-14T16:28:29.481Z,7.47
2018-06-14T16:31:07.080Z,10.67
2018-06-14T16:33:44.022Z,7.73
2018-06-14T16:36:21.579Z,7.57
2018-06-14T16:38:58.309Z,8.03
2018-06-14T16:41:34.978Z,7.93
2018-06-14T16:44:10.745Z,7.37
2018-06-14T16:46:46.972Z,10.27
2018-06-14T16:49:23.555Z,7.67
2018-06-14T16:52:01.128Z,7.73
2018-06-14T16:54:37.859Z,8.73
2018-06-14T16:57:15.218Z,7.90
2018-06-14T16:59:53.599Z,7.17
2018-06-14T17:02:32.304Z,7.73
2018-06-14T17:05:08.463Z,11.63
2018-06-14T17:07:45.505Z,9.77
2018-06-14T17:10:23.699Z,7.87
2018-06-14T17:12:59.930Z,8.67
2018-06-14T17:15:37.865Z,8.30
2018-06-14T17:18:15.986Z,9.73
2018-06-14T17:20:52.175Z,9.10
2018-06-14T17:23:28.769Z,7.57
2018-06-14T17:26:05.402Z,6.50
2018-06-14T17:31:24.092Z,5.83
2018-06-14T17:34:01.772Z,6.00
2018-06-14T17:36:39.017Z,7.13
2018-06-14T17:39:16.873Z,6.50
2018-06-14T17:41:53.968Z,6.97
2018-06-14T17:44:31.958Z,6.80
2018-06-14T17:47:08.805Z,7.37
2018-06-14T17:49:46.310Z,6.37
2018-06-14T17:52:24.804Z,6.83
2018-06-14T17:55:01.178Z,6.87
2018-06-14T17:57:40.701Z,6.30
2018-06-14T18:00:16.889Z,7.10
2018-06-14T18:02:53.656Z,8.27
2018-06-14T18:05:29.508Z,8.13
2018-06-14T18:08:07.417Z,7.50
2018-06-14T18:10:45.264Z,7.10
2018-06-14T18:13:24.940Z,7.87
2018-06-14T18:16:01.314Z,11.20
2018-06-14T18:18:38.065Z,11.00
2018-06-14T18:21:15.542Z,6.10
2018-06-14T18:23:52.870Z,6.77
2018-06-14T18:26:29.853Z,8.83
2018-06-14T18:29:07.328Z,8.10
2018-06-14T18:31:44.980Z,5.57
2018-06-14T18:34:23.107Z,7.97
2018-06-14T18:36:59.861Z,5.87
2018-06-14T18:39:37.779Z,8.37
2018-06-14T18:42:14.305Z,12.50
2018-06-14T18:44:51.081Z,6.30
2018-06-14T18:47:29.347Z,6.73
2018-06-14T18:50:07.172Z,6.43
2018-06-14T18:52:44.214Z,7.10
2018-06-14T18:55:20.844Z,8.77
2018-06-14T18:57:56.197Z,7.30
2018-06-14T19:00:33.830Z,8.13
2018-06-14T19:03:09.701Z,8.23
2018-06-14T19:05:47.534Z,6.23
2018-06-14T19:08:24.828Z,6.57
2018-06-14T19:11:02.411Z,9.03
2018-06-14T19:13:39.524Z,9.33
2018-06-14T19:16:16.974Z,12.60
2018-06-14T19:18:54.338Z,9.67
2018-06-14T19:21:31.331Z,10.83
2018-06-14T19:24:09.609Z,8.53
2018-06-14T19:26:48.096Z,8.90
2018-06-14T19:29:24.404Z,7.67
2018-06-14T19:32:00.805Z,9.37
2018-06-14T19:34:37.408Z,8.70
2018-06-14T19:37:14.355Z,10.07
2018-06-14T19:39:50.434Z,12.67
2018-06-14T19:42:26.768Z,9.27
2018-06-14T19:45:05.296Z,9.60
2018-06-14T19:47:42.849Z,9.43
2018-06-14T19:50:19.242Z,11.33
2018-06-14T19:52:57.779Z,10.33
2018-06-14T19:55:34.951Z,11.77
2018-06-14T19:58:10.612Z,11.53
2018-06-14T20:00:48.454Z,11.77
2018-06-14T20:03:25.921Z,10.50
2018-06-14T20:06:02.651Z,15.03
2018-06-14T20:08:39.997Z,13.13
2018-06-14T20:11:17.615Z,11.53
2018-06-14T20:13:54.832Z,11.17
2018-06-14T20:16:31.592Z,10.03
2018-06-14T20:19:08.543Z,8.80
2018-06-14T20:21:44.612Z,8.93
2018-06-14T20:24:21.011Z,10.97
2018-06-14T20:26:57.929Z,10.70
2018-06-14T20:29:33.696Z,7.83
2018-06-14T20:32:12.016Z,8.87
2018-06-14T20:34:49.440Z,9.27
2018-06-14T20:37:25.609Z,9.43
2018-06-14T20:40:01.470Z,10.63
2018-06-14T20:42:39.107Z,13.10
2018-06-14T20:45:15.943Z,11.57
2018-06-14T20:47:52.182Z,11.50
2018-06-14T20:50:28.031Z,9.40
2018-06-14T20:53:04.999Z,9.97
2018-06-14T20:55:42.508Z,10.37
2018-06-14T20:58:19.714Z,14.30
2018-06-14T21:00:55.973Z,9.80
2018-06-14T21:03:34.464Z,9.77
2018-06-14T21:06:11.961Z,12.40
2018-06-14T21:08:49.589Z,10.90
2018-06-14T21:11:26.701Z,11.77
2018-06-14T21:14:06.506Z,8.27
2018-06-14T21:16:44.097Z,8.07
2018-06-14T21:19:20.340Z,12.23
2018-06-14T21:21:56.442Z,10.40
2018-06-14T21:24:32.597Z,9.07
2018-06-14T21:27:10.012Z,10.03
2018-06-14T21:29:48.997Z,10.68
2018-06-14T21:32:26.540Z,9.53
2018-06-14T21:35:02.308Z,9.27
2018-06-14T21:37:43.639Z,10.27
2018-06-14T21:40:21.108Z,8.70
2018-06-14T21:42:57.384Z,10.50
2018-06-14T21:45:36.883Z,13.25
2018-06-14T21:48:14.169Z,15.32
2018-06-14T21:50:52.014Z,12.63
2018-06-14T21:53:31.254Z,15.08
2018-06-14T21:56:10.208Z,13.98
2018-06-14T21:58:46.649Z,13.53
2018-06-14T22:01:23.608Z,12.55
2018-06-14T22:04:02.384Z,15.32
2018-06-14T22:06:39.851Z,12.90
2018-06-14T22:09:18.575Z,10.48
2018-06-14T22:11:54.791Z,10.70
2018-06-14T22:14:31.144Z,11.12
2018-06-14T22:17:08.441Z,11.68
2018-06-14T22:19:44.980Z,13.45
2018-06-14T22:22:23.282Z,13.35
2018-06-14T22:25:01.011Z,11.55
2018-06-14T22:27:38.335Z,10.00
2018-06-14T22:30:16.086Z,10.68
2018-06-14T22:33:10.179Z,11.03
2018-06-14T22:35:48.187Z,11.45
2018-06-14T22:38:26.252Z,9.98
2018-06-14T22:41:02.837Z,11.20
2018-06-14T22:43:39.586Z,11.00
2018-06-14T22:46:16.328Z,12.28
2018-06-14T22:48:52.416Z,14.95
2018-06-14T22:51:40.544Z,11.00
2018-06-14T22:54:17.616Z,11.22
2018-06-14T22:56:56.275Z,13.03
2018-06-14T22:59:32.601Z,13.53
2018-06-14T23:02:08.700Z,11.75
2018-06-14T23:04:47.566Z,12.25
2018-06-14T23:07:23.564Z,11.38
2018-06-14T23:10:26.599Z,13.28
2018-06-14T23:13:04.787Z,12.80
2018-06-14T23:15:43.024Z,12.03
2018-06-14T23:18:20.842Z,13.50
2018-06-14T23:20:57.697Z,11.75
2018-06-14T23:23:35.136Z,11.30
2018-06-14T23:26:11.942Z,11.97
2018-06-14T23:28:48.706Z,11.48
2018-06-14T23:31:25.492Z,11.90
2018-06-14T23:34:02.139Z,14.18
2018-06-14T23:36:40.946Z,13.10
2018-06-14T23:39:18.186Z,14.98
2018-06-14T23:41:55.903Z,14.25
2018-06-14T23:44:34.718Z,17.73
2018-06-14T23:47:13.450Z,16.12
2018-06-14T23:49:50.107Z,17.23
2018-06-14T23:52:27.801Z,18.25
2018-06-14T23:55:04.413Z,14.80
2018-06-14T23:57:42.210Z,16.05
